Time;durP1;ratioP1;P1;durP2;ratioP2;P2;SDS_P1;SDS_P2;PMS_P1;PMS_P2;Temp;Humidity;BMP_temperature;BMP_pressure;BME280_temperature;BME280_humidity;BME280_pressure;Samples;Min_cycle;Max_cycle;Signal;HPM_P1;HPM_P2
2022/05/27 00:00:07;;;;;;;0.20;0.20;;;;;;;;;;5053521;28;20342;-67
2022/05/27 00:02:35;;;;;;;0.32;0.20;;;;;;;;;;5048774;28;20528;-68
2022/05/27 00:05:03;;;;;;;0.20;0.20;;;;;;;;;;5050288;28;20133;-68
2022/05/27 00:07:33;;;;;;;0.10;0.10;;;;;;;;;;5049367;28;20435;-67
2022/05/27 00:10:02;;;;;;;0.55;0.25;;;;;;;;;;5049732;28;20120;-69
2022/05/27 00:12:30;;;;;;;0.00;0.00;;;;;;;;;;5049158;28;20526;-67
2022/05/27 00:14:59;;;;;;;0.30;0.30;;;;;;;;;;5050999;28;20041;-67
2022/05/27 00:17:27;;;;;;;0.20;0.20;;;;;;;;;;5049706;28;20048;-68
2022/05/27 00:19:55;;;;;;;0.20;0.20;;;;;;;;;;5049780;28;20118;-67
2022/05/27 00:22:24;;;;;;;0.68;0.30;;;;;;;;;;5051179;28;20522;-68
2022/05/27 00:24:53;;;;;;;0.20;0.20;;;;;;;;;;5047069;28;20076;-68
2022/05/27 00:27:22;;;;;;;0.10;0.10;;;;;;;;;;5043455;28;20053;-70
2022/05/27 00:29:50;;;;;;;0.55;0.55;;;;;;;;;;5045834;28;20102;-67
2022/05/27 00:32:29;;;;;;;0.10;0.10;;;;;;;;;;5050441;28;20443;-67
2022/05/27 00:34:57;;;;;;;0.10;0.10;;;;;;;;;;5046894;28;20734;-68
2022/05/27 00:37:27;;;;;;;0.52;0.52;;;;;;;;;;5040421;28;20045;-67
2022/05/27 00:39:57;;;;;;;0.45;0.45;;;;;;;;;;5045117;28;20136;-67
2022/05/27 00:42:25;;;;;;;0.20;0.20;;;;;;;;;;5047580;28;20591;-67
2022/05/27 00:44:54;;;;;;;0.65;0.50;;;;;;;;;;5044734;28;20045;-70
2022/05/27 00:47:24;;;;;;;0.73;0.30;;;;;;;;;;5048864;28;20132;-68
2022/05/27 00:49:54;;;;;;;1.75;0.47;;;;;;;;;;5038333;28;20480;-67
2022/05/27 00:52:25;;;;;;;0.25;0.25;;;;;;;;;;5049700;28;20473;-68
2022/05/27 00:54:54;;;;;;;0.40;0.25;;;;;;;;;;5050531;28;20065;-68
2022/05/27 00:57:26;;;;;;;0.10;0.10;;;;;;;;;;5052394;28;20052;-67
2022/05/27 00:59:56;;;;;;;0.20;0.20;;;;;;;;;;5049196;28;20087;-68
2022/05/27 01:02:24;;;;;;;0.10;0.10;;;;;;;;;;5046440;28;20565;-67
2022/05/27 01:04:53;;;;;;;0.10;0.10;;;;;;;;;;5051393;28;20122;-68
2022/05/27 01:07:22;;;;;;;0.45;0.30;;;;;;;;;;5034197;28;20500;-67
2022/05/27 01:09:51;;;;;;;0.73;0.13;;;;;;;;;;5043816;28;20204;-67
2022/05/27 01:12:40;;;;;;;0.10;0.10;;;;;;;;;;5046587;28;20519;-67
2022/05/27 01:15:13;;;;;;;0.25;0.25;;;;;;;;;;5045358;28;20041;-67
2022/05/27 01:17:46;;;;;;;2.08;0.25;;;;;;;;;;5046941;28;20123;-67
2022/05/27 01:20:21;;;;;;;0.20;0.20;;;;;;;;;;5049909;28;20071;-67
2022/05/27 01:23:04;;;;;;;0.30;0.30;;;;;;;;;;5047756;28;20072;-68
2022/05/27 01:25:48;;;;;;;0.35;0.32;;;;;;;;;;5043546;28;20049;-67
2022/05/27 01:28:29;;;;;;;0.47;0.32;;;;;;;;;;5042156;28;20072;-68
2022/05/27 01:31:02;;;;;;;0.52;0.52;;;;;;;;;;5046395;28;20064;-67
2022/05/27 01:33:38;;;;;;;0.30;0.30;;;;;;;;;;5048739;28;20098;-68
2022/05/27 01:36:08;;;;;;;0.30;0.30;;;;;;;;;;5047416;28;20552;-70
2022/05/27 01:38:39;;;;;;;0.85;0.40;;;;;;;;;;5047506;28;20824;-67
2022/05/27 01:41:11;;;;;;;0.20;0.20;;;;;;;;;;5047071;28;20132;-68
2022/05/27 01:43:42;;;;;;;0.35;0.35;;;;;;;;;;5044240;28;20147;-67
2022/05/27 01:46:15;;;;;;;0.22;0.22;;;;;;;;;;5044347;28;20131;-67
2022/05/27 01:48:49;;;;;;;1.17;0.30;;;;;;;;;;5044928;28;20071;-67
2022/05/27 01:51:20;;;;;;;0.30;0.22;;;;;;;;;;5041999;28;20406;-67
2022/05/27 01:53:52;;;;;;;0.75;0.20;;;;;;;;;;5049345;28;20200;-68
2022/05/27 01:56:22;;;;;;;5.28;1.95;;;;;;;;;;5049024;28;20087;-67
2022/05/27 01:58:53;;;;;;;0.63;0.63;;;;;;;;;;5047563;28;20136;-67
2022/05/27 02:01:25;;;;;;;0.80;0.80;;;;;;;;;;5045595;28;20153;-67
2022/05/27 02:03:55;;;;;;;0.57;0.57;;;;;;;;;;5049839;28;20040;-67
2022/05/27 02:06:25;;;;;;;0.70;0.50;;;;;;;;;;5048672;28;20049;-67
2022/05/27 02:08:55;;;;;;;0.40;0.40;;;;;;;;;;5045323;28;20556;-67
2022/05/27 02:11:25;;;;;;;0.88;0.50;;;;;;;;;;5048422;28;20083;-67
2022/05/27 02:13:56;;;;;;;2.20;0.68;;;;;;;;;;5050514;28;20072;-67
2022/05/27 02:16:43;;;;;;;0.55;0.55;;;;;;;;;;5048915;28;20045;-67
2022/05/27 02:19:15;;;;;;;1.27;1.13;;;;;;;;;;5049025;28;20052;-67
2022/05/27 02:21:44;;;;;;;1.38;0.60;;;;;;;;;;5052013;28;20131;-67
2022/05/27 02:24:15;;;;;;;1.13;0.93;;;;;;;;;;5055049;28;20139;-67
2022/05/27 02:26:46;;;;;;;0.13;0.13;;;;;;;;;;5041610;28;20574;-67
2022/05/27 02:29:15;;;;;;;0.63;0.52;;;;;;;;;;5047072;28;20401;-67
2022/05/27 02:31:51;;;;;;;0.20;0.20;;;;;;;;;;5043746;28;20077;-67
2022/05/27 02:37:09;;;;;;;0.13;0.13;;;;;;;;;;5047690;28;20512;-69
2022/05/27 02:39:38;;;;;;;0.20;0.20;;;;;;;;;;5047936;28;20124;-68
2022/05/27 02:42:11;;;;;;;0.45;0.38;;;;;;;;;;5048710;28;20092;-68
2022/05/27 02:44:43;;;;;;;0.90;0.90;;;;;;;;;;5049270;28;20123;-68
2022/05/27 02:47:16;;;;;;;0.82;0.55;;;;;;;;;;5048504;28;20091;-68
2022/05/27 02:49:49;;;;;;;0.20;0.20;;;;;;;;;;5045193;28;20072;-68
2022/05/27 02:52:25;;;;;;;0.40;0.32;;;;;;;;;;5037158;28;20092;-67
2022/05/27 02:54:58;;;;;;;0.88;0.43;;;;;;;;;;5047526;28;20135;-68
2022/05/27 02:57:29;;;;;;;0.20;0.20;;;;;;;;;;5047628;28;20052;-67
2022/05/27 02:59:58;;;;;;;0.38;0.38;;;;;;;;;;5046595;28;20361;-68
2022/05/27 03:02:28;;;;;;;0.40;0.40;;;;;;;;;;5052574;28;20088;-67
2022/05/27 03:04:58;;;;;;;0.40;0.40;;;;;;;;;;5051276;28;20073;-67
2022/05/27 03:07:33;;;;;;;0.35;0.35;;;;;;;;;;5040180;28;20708;-68
2022/05/27 03:10:10;;;;;;;1.30;0.65;;;;;;;;;;5049416;28;20479;-67
2022/05/27 03:12:41;;;;;;;2.08;0.40;;;;;;;;;;5051475;28;20128;-68
2022/05/27 03:15:16;;;;;;;0.22;0.22;;;;;;;;;;5053169;28;20072;-68
2022/05/27 03:17:52;;;;;;;0.20;0.20;;;;;;;;;;5049980;28;20129;-67
2022/05/27 03:20:26;;;;;;;1.02;0.63;;;;;;;;;;5048155;28;20073;-68
2022/05/27 03:23:02;;;;;;;1.48;0.30;;;;;;;;;;5046275;28;20049;-68
2022/05/27 03:25:34;;;;;;;0.68;0.35;;;;;;;;;;5047770;28;20126;-68
2022/05/27 03:28:08;;;;;;;1.08;0.45;;;;;;;;;;5048880;28;20119;-67
2022/05/27 03:30:40;;;;;;;0.20;0.20;;;;;;;;;;5048749;28;20041;-67
2022/05/27 03:33:14;;;;;;;0.57;0.40;;;;;;;;;;5051028;28;20084;-67
2022/05/27 03:35:45;;;;;;;0.30;0.30;;;;;;;;;;5050773;28;20681;-68
2022/05/27 03:38:16;;;;;;;0.15;0.15;;;;;;;;;;5050060;28;20139;-68
2022/05/27 03:40:47;;;;;;;0.25;0.25;;;;;;;;;;5051311;28;20148;-68
2022/05/27 03:43:16;;;;;;;0.80;0.70;;;;;;;;;;5052399;28;20076;-67
2022/05/27 03:45:48;;;;;;;0.35;0.35;;;;;;;;;;5050447;28;20194;-67
2022/05/27 03:48:18;;;;;;;0.65;0.50;;;;;;;;;;5050044;28;20051;-68
2022/05/27 03:50:48;;;;;;;0.30;0.30;;;;;;;;;;5035333;28;20435;-67
2022/05/27 03:53:17;;;;;;;0.57;0.57;;;;;;;;;;5049025;28;20501;-68
2022/05/27 03:55:45;;;;;;;0.35;0.35;;;;;;;;;;5050867;28;20068;-67
2022/05/27 03:58:14;;;;;;;0.80;0.40;;;;;;;;;;5050612;28;20429;-67
2022/05/27 04:00:42;;;;;;;0.40;0.40;;;;;;;;;;5048920;28;20044;-68
2022/05/27 04:03:11;;;;;;;0.40;0.40;;;;;;;;;;5044047;28;20435;-67
2022/05/27 04:05:41;;;;;;;0.10;0.10;;;;;;;;;;5049014;28;20103;-68
2022/05/27 04:08:10;;;;;;;0.40;0.40;;;;;;;;;;5046220;28;20555;-68
2022/05/27 04:10:38;;;;;;;0.10;0.10;;;;;;;;;;5047719;28;20488;-68
2022/05/27 04:13:06;;;;;;;0.30;0.30;;;;;;;;;;5049756;28;20563;-67
2022/05/27 04:15:35;;;;;;;0.30;0.30;;;;;;;;;;5035742;28;20072;-68
2022/05/27 04:18:03;;;;;;;0.52;0.47;;;;;;;;;;5041921;28;20044;-67
2022/05/27 04:20:31;;;;;;;0.20;0.20;;;;;;;;;;5045780;28;20069;-68
2022/05/27 04:23:01;;;;;;;0.22;0.22;;;;;;;;;;5050705;28;20076;-68
2022/05/27 04:25:29;;;;;;;1.65;0.32;;;;;;;;;;5043090;28;20123;-67
2022/05/27 04:27:58;;;;;;;0.40;0.30;;;;;;;;;;5047690;28;20045;-68
2022/05/27 04:30:26;;;;;;;0.22;0.20;;;;;;;;;;5049947;28;20135;-68
2022/05/27 04:32:54;;;;;;;0.43;0.43;;;;;;;;;;5048053;28;20128;-68
2022/05/27 04:35:23;;;;;;;0.55;0.55;;;;;;;;;;5049465;28;20447;-68
2022/05/27 04:37:51;;;;;;;0.55;0.32;;;;;;;;;;5047881;28;20136;-68
2022/05/27 04:40:21;;;;;;;0.20;0.20;;;;;;;;;;5049190;28;20045;-68
2022/05/27 04:42:49;;;;;;;0.30;0.30;;;;;;;;;;5046630;28;20046;-68
2022/05/27 04:45:19;;;;;;;0.10;0.10;;;;;;;;;;5048528;28;20128;-68
2022/05/27 04:47:48;;;;;;;0.35;0.35;;;;;;;;;;5049008;28;20084;-68
2022/05/27 04:50:16;;;;;;;0.65;0.63;;;;;;;;;;5047651;28;20152;-68
2022/05/27 04:52:44;;;;;;;0.85;0.28;;;;;;;;;;5044460;28;20129;-67
2022/05/27 04:55:13;;;;;;;0.32;0.32;;;;;;;;;;5042815;28;20546;-68
2022/05/27 04:57:44;;;;;;;0.30;0.20;;;;;;;;;;5043117;28;20081;-68
2022/05/27 05:00:14;;;;;;;0.22;0.22;;;;;;;;;;5048232;28;20123;-70
2022/05/27 05:02:43;;;;;;;0.20;0.20;;;;;;;;;;5051542;28;20128;-68
2022/05/27 05:05:13;;;;;;;0.30;0.30;;;;;;;;;;5049769;28;20052;-68
2022/05/27 05:07:42;;;;;;;1.55;0.30;;;;;;;;;;5048569;28;20072;-68
2022/05/27 05:10:11;;;;;;;0.43;0.43;;;;;;;;;;5046087;28;20056;-69
2022/05/27 05:12:40;;;;;;;0.30;0.20;;;;;;;;;;5039778;28;20066;-68
2022/05/27 05:15:10;;;;;;;1.23;0.52;;;;;;;;;;5041107;28;20049;-68
2022/05/27 05:17:38;;;;;;;0.60;0.60;;;;;;;;;;5040328;28;20055;-69
2022/05/27 05:20:08;;;;;;;0.43;0.38;;;;;;;;;;5048874;28;20592;-68
2022/05/27 05:22:36;;;;;;;0.20;0.20;;;;;;;;;;5049303;28;20053;-68
2022/05/27 05:25:05;;;;;;;0.20;0.20;;;;;;;;;;5048450;28;20095;-69
2022/05/27 05:27:34;;;;;;;0.20;0.20;;;;;;;;;;5048789;28;20102;-68
2022/05/27 05:30:04;;;;;;;0.43;0.32;;;;;;;;;;5048297;28;20496;-68
2022/05/27 05:32:33;;;;;;;0.55;0.35;;;;;;;;;;5044519;28;20045;-69
2022/05/27 05:35:02;;;;;;;0.40;0.40;;;;;;;;;;5035798;28;20088;-69
2022/05/27 05:37:30;;;;;;;0.80;0.30;;;;;;;;;;5047061;28;20167;-68
2022/05/27 05:40:01;;;;;;;0.20;0.20;;;;;;;;;;5041640;28;20087;-69
2022/05/27 05:42:29;;;;;;;0.70;0.65;;;;;;;;;;5048252;28;20041;-68
2022/05/27 05:44:59;;;;;;;0.50;0.50;;;;;;;;;;5049064;28;20127;-68
2022/05/27 05:47:27;;;;;;;0.10;0.10;;;;;;;;;;5043684;28;20234;-69
2022/05/27 05:49:57;;;;;;;0.50;0.50;;;;;;;;;;5039897;28;20108;-68
2022/05/27 05:52:26;;;;;;;0.90;0.47;;;;;;;;;;5043920;28;20049;-70
2022/05/27 05:54:54;;;;;;;0.47;0.45;;;;;;;;;;5044998;28;20132;-68
2022/05/27 05:57:23;;;;;;;0.63;0.60;;;;;;;;;;5043434;28;20102;-68
2022/05/27 05:59:51;;;;;;;0.93;0.40;;;;;;;;;;5041017;28;20131;-68
2022/05/27 06:02:19;;;;;;;0.10;0.10;;;;;;;;;;5042775;28;20075;-68
2022/05/27 06:04:48;;;;;;;0.20;0.20;;;;;;;;;;5048318;28;20056;-69
2022/05/27 06:07:17;;;;;;;0.50;0.50;;;;;;;;;;5048143;28;20127;-68
2022/05/27 06:09:46;;;;;;;0.55;0.47;;;;;;;;;;5048832;28;20049;-68
2022/05/27 06:12:16;;;;;;;0.45;0.40;;;;;;;;;;5049677;28;20398;-68
2022/05/27 06:14:45;;;;;;;0.35;0.30;;;;;;;;;;5047954;28;20139;-68
2022/05/27 06:17:13;;;;;;;0.20;0.20;;;;;;;;;;5048181;28;20084;-69
2022/05/27 06:19:41;;;;;;;0.60;0.43;;;;;;;;;;5049968;28;20128;-69
2022/05/27 06:22:10;;;;;;;1.00;0.30;;;;;;;;;;5050844;28;20041;-70
2022/05/27 06:24:39;;;;;;;0.15;0.15;;;;;;;;;;5044778;28;20132;-68
2022/05/27 06:27:08;;;;;;;0.80;0.47;;;;;;;;;;5045714;28;20053;-68
2022/05/27 06:35:09;;;;;;;1.10;0.50;;;;;;;;;;5046393;28;20163;-68
2022/05/27 06:37:37;;;;;;;0.30;0.30;;;;;;;;;;5053521;28;20072;-68
2022/05/27 06:40:08;;;;;;;0.20;0.20;;;;;;;;;;5051030;28;20095;-68
2022/05/27 06:42:37;;;;;;;0.20;0.20;;;;;;;;;;5036136;28;20558;-68
2022/05/27 06:45:07;;;;;;;0.20;0.20;;;;;;;;;;5054373;28;20053;-69
2022/05/27 06:47:35;;;;;;;0.30;0.30;;;;;;;;;;5054324;28;20045;-68
2022/05/27 06:50:04;;;;;;;0.57;0.38;;;;;;;;;;5051949;28;20106;-69
2022/05/27 06:52:32;;;;;;;0.40;0.32;;;;;;;;;;5055648;28;20072;-69
2022/05/27 06:55:01;;;;;;;0.30;0.30;;;;;;;;;;5052211;28;20423;-69
2022/05/27 06:57:31;;;;;;;0.15;0.15;;;;;;;;;;5042819;28;20045;-69
2022/05/27 07:00:00;;;;;;;0.28;0.28;;;;;;;;;;5042523;28;20139;-70
2022/05/27 07:02:28;;;;;;;0.28;0.28;;;;;;;;;;5054536;28;20378;-69
2022/05/27 07:04:57;;;;;;;0.13;0.13;;;;;;;;;;5045390;28;20523;-69
2022/05/27 07:07:28;;;;;;;0.30;0.22;;;;;;;;;;5043038;28;20084;-69
2022/05/27 07:09:57;;;;;;;2.80;0.52;;;;;;;;;;5044408;28;20060;-70
2022/05/27 07:12:25;;;;;;;0.32;0.30;;;;;;;;;;5041546;28;20053;-69
2022/05/27 07:14:55;;;;;;;0.35;0.30;;;;;;;;;;5051819;28;20124;-69
2022/05/27 07:17:24;;;;;;;0.43;0.35;;;;;;;;;;5052155;28;20044;-69
2022/05/27 07:19:52;;;;;;;0.10;0.10;;;;;;;;;;5052202;28;20049;-68
2022/05/27 07:22:21;;;;;;;0.30;0.30;;;;;;;;;;5043018;28;20049;-68
2022/05/27 07:24:49;;;;;;;0.30;0.30;;;;;;;;;;5043887;28;20079;-69
2022/05/27 07:27:17;;;;;;;0.98;0.77;;;;;;;;;;5046393;28;20076;-70
2022/05/27 07:29:46;;;;;;;0.20;0.20;;;;;;;;;;5051045;28;20080;-70
2022/05/27 07:32:15;;;;;;;0.20;0.20;;;;;;;;;;5051914;28;20087;-69
2022/05/27 07:34:47;;;;;;;0.95;0.43;;;;;;;;;;5048861;28;20045;-70
2022/05/27 07:37:15;;;;;;;0.47;0.40;;;;;;;;;;5052136;28;20041;-69
2022/05/27 07:39:44;;;;;;;0.20;0.20;;;;;;;;;;5056618;28;20732;-70
2022/05/27 07:42:13;;;;;;;0.40;0.40;;;;;;;;;;5045765;28;20044;-69
2022/05/27 07:44:41;;;;;;;0.30;0.30;;;;;;;;;;5052221;28;20071;-70
2022/05/27 07:47:09;;;;;;;0.70;0.70;;;;;;;;;;5050622;28;20111;-69
2022/05/27 07:49:39;;;;;;;0.88;0.32;;;;;;;;;;5043650;28;20076;-69
2022/05/27 07:52:08;;;;;;;0.13;0.13;;;;;;;;;;5052130;28;20041;-69
2022/05/27 07:54:36;;;;;;;0.63;0.30;;;;;;;;;;5053268;28;20068;-69
2022/05/27 07:57:23;;;;;;;0.13;0.13;;;;;;;;;;5044991;28;20114;-70
2022/05/27 07:59:52;;;;;;;0.10;0.10;;;;;;;;;;5049111;28;20119;-69
2022/05/27 08:02:20;;;;;;;1.38;0.15;;;;;;;;;;5052235;28;20905;-69
2022/05/27 08:04:50;;;;;;;0.30;0.30;;;;;;;;;;5050909;28;20091;-69
2022/05/27 08:07:20;;;;;;;0.30;0.25;;;;;;;;;;5043167;28;20080;-71
2022/05/27 08:09:49;;;;;;;0.20;0.20;;;;;;;;;;5050828;28;20041;-70
2022/05/27 08:12:18;;;;;;;0.35;0.35;;;;;;;;;;5034645;28;20064;-70
2022/05/27 08:14:46;;;;;;;1.40;1.05;;;;;;;;;;5038961;28;20098;-71
2022/05/27 08:17:14;;;;;;;0.38;0.38;;;;;;;;;;5046747;28;20053;-72
2022/05/27 08:19:43;;;;;;;1.77;0.25;;;;;;;;;;5042634;28;20489;-72
2022/05/27 08:22:12;;;;;;;0.30;0.30;;;;;;;;;;5046455;28;20045;-72
2022/05/27 08:24:41;;;;;;;0.10;0.10;;;;;;;;;;5043880;28;20048;-72
2022/05/27 08:27:11;;;;;;;0.25;0.25;;;;;;;;;;5047217;28;20051;-71
2022/05/27 08:29:40;;;;;;;0.10;0.10;;;;;;;;;;5051672;28;20072;-71
2022/05/27 08:32:09;;;;;;;0.80;0.40;;;;;;;;;;5044320;28;20049;-71
2022/05/27 08:40:26;;;;;;;0.50;0.40;;;;;;;;;;5032867;28;20060;-71
2022/05/27 08:42:59;;;;;;;0.45;0.45;;;;;;;;;;5054742;28;20052;-71
2022/05/27 08:45:32;;;;;;;0.20;0.15;;;;;;;;;;5053255;28;20136;-71
2022/05/27 08:48:03;;;;;;;0.25;0.22;;;;;;;;;;5050335;28;20111;-71
2022/05/27 08:50:33;;;;;;;0.30;0.30;;;;;;;;;;5050542;28;20057;-72
2022/05/27 08:53:05;;;;;;;0.35;0.30;;;;;;;;;;5049501;28;20160;-75
2022/05/27 09:01:18;;;;;;;0.20;0.20;;;;;;;;;;5047820;28;20122;-73
2022/05/27 09:03:48;;;;;;;0.50;0.38;;;;;;;;;;5049612;28;20071;-73
2022/05/27 09:06:19;;;;;;;0.40;0.40;;;;;;;;;;5049772;28;20413;-72
2022/05/27 09:08:49;;;;;;;0.50;0.38;;;;;;;;;;5046103;28;20045;-72
2022/05/27 09:11:26;;;;;;;0.20;0.20;;;;;;;;;;5051012;28;20106;-73
2022/05/27 09:13:58;;;;;;;0.20;0.20;;;;;;;;;;5045503;28;20678;-73
2022/05/27 09:16:30;;;;;;;0.20;0.20;;;;;;;;;;5050850;28;20056;-72
2022/05/27 09:19:02;;;;;;;0.38;0.32;;;;;;;;;;5042776;28;20489;-74
2022/05/27 09:21:34;;;;;;;0.20;0.17;;;;;;;;;;5044149;28;20041;-76
2022/05/27 09:24:12;;;;;;;0.30;0.30;;;;;;;;;;5049848;28;20069;-74
2022/05/27 09:26:44;;;;;;;0.10;0.10;;;;;;;;;;5044798;28;20540;-73
2022/05/27 09:29:19;;;;;;;0.43;0.43;;;;;;;;;;5045729;28;20098;-72
2022/05/27 09:31:50;;;;;;;0.35;0.20;;;;;;;;;;5047946;28;20123;-72
2022/05/27 09:34:19;;;;;;;0.45;0.15;;;;;;;;;;5051071;28;20132;-72
2022/05/27 09:36:50;;;;;;;0.45;0.15;;;;;;;;;;5046311;28;20055;-73
2022/05/27 09:39:24;;;;;;;0.30;0.30;;;;;;;;;;5050061;28;20049;-72
2022/05/27 09:41:57;;;;;;;0.20;0.20;;;;;;;;;;5053235;28;20072;-71
2022/05/27 09:44:28;;;;;;;0.70;0.40;;;;;;;;;;5049748;28;20492;-74
2022/05/27 09:46:56;;;;;;;0.93;0.28;;;;;;;;;;5048677;28;20053;-72
2022/05/27 09:49:25;;;;;;;1.02;0.17;;;;;;;;;;5050691;28;20481;-76
2022/05/27 09:51:53;;;;;;;0.52;0.52;;;;;;;;;;5013520;28;20081;-71
2022/05/27 09:54:35;;;;;;;1.38;0.38;;;;;;;;;;5012408;28;20050;-71
2022/05/27 09:57:22;;;;;;;0.55;0.43;;;;;;;;;;5011760;28;20100;-74
2022/05/27 09:59:56;;;;;;;0.20;0.20;;;;;;;;;;5012464;28;20052;-73
2022/05/27 10:02:30;;;;;;;1.45;0.63;;;;;;;;;;4995735;28;20050;-73
2022/05/27 10:05:00;;;;;;;0.43;0.43;;;;;;;;;;5003000;28;20057;-73
2022/05/27 10:07:31;;;;;;;0.20;0.13;;;;;;;;;;5000743;28;20076;-73
2022/05/27 10:10:17;;;;;;;0.28;0.20;;;;;;;;;;5011318;28;20042;-72
2022/05/27 10:12:46;;;;;;;0.20;0.20;;;;;;;;;;5004716;28;20049;-73
2022/05/27 10:15:28;;;;;;;0.15;0.15;;;;;;;;;;5010129;28;20073;-74
2022/05/27 10:17:58;;;;;;;0.28;0.28;;;;;;;;;;5002872;28;20073;-74
2022/05/27 10:20:31;;;;;;;0.20;0.20;;;;;;;;;;5009804;28;20445;-73
2022/05/27 10:23:01;;;;;;;0.77;0.75;;;;;;;;;;5005443;28;20060;-73
2022/05/27 10:25:33;;;;;;;0.20;0.20;;;;;;;;;;5003487;28;20444;-72
2022/05/27 10:28:01;;;;;;;0.22;0.10;;;;;;;;;;5006530;28;20136;-73
2022/05/27 10:30:31;;;;;;;0.32;0.22;;;;;;;;;;5009311;28;20073;-73
2022/05/27 10:33:13;;;;;;;0.40;0.40;;;;;;;;;;5010638;28;20121;-72
2022/05/27 10:35:42;;;;;;;0.30;0.20;;;;;;;;;;5009505;28;20088;-73
2022/05/27 10:38:25;;;;;;;0.45;0.30;;;;;;;;;;5004686;28;20136;-73
2022/05/27 10:40:57;;;;;;;0.45;0.25;;;;;;;;;;5004341;28;20050;-73
2022/05/27 10:43:32;;;;;;;0.30;0.30;;;;;;;;;;5006142;28;20046;-74
2022/05/27 10:46:07;;;;;;;0.32;0.32;;;;;;;;;;5011515;28;20379;-74
2022/05/27 10:48:45;;;;;;;0.40;0.38;;;;;;;;;;5009459;28;20473;-73
2022/05/27 10:51:21;;;;;;;0.20;0.20;;;;;;;;;;5037676;28;20106;-73
2022/05/27 10:53:55;;;;;;;1.45;0.20;;;;;;;;;;5047387;28;20045;-73
2022/05/27 10:56:32;;;;;;;0.13;0.10;;;;;;;;;;5045493;28;20081;-72
2022/05/27 11:02:08;;;;;;;0.45;0.45;;;;;;;;;;5048833;28;20099;-73
2022/05/27 11:04:54;;;;;;;0.52;0.15;;;;;;;;;;5047273;28;20476;-74
2022/05/27 11:07:27;;;;;;;0.45;0.25;;;;;;;;;;5041863;28;20064;-72
2022/05/27 11:10:03;;;;;;;0.70;0.35;;;;;;;;;;5046678;28;20041;-74
2022/05/27 11:15:33;;;;;;;0.00;0.00;;;;;;;;;;5040301;28;20072;-76
2022/05/27 11:18:08;;;;;;;0.10;0.10;;;;;;;;;;5046710;28;20081;-75
2022/05/27 11:20:43;;;;;;;0.20;0.20;;;;;;;;;;5048347;28;20052;-75
2022/05/27 11:23:20;;;;;;;0.25;0.20;;;;;;;;;;5049775;28;20071;-75
2022/05/27 11:25:56;;;;;;;0.15;0.15;;;;;;;;;;5053085;28;20124;-74
2022/05/27 11:28:43;;;;;;;0.10;0.10;;;;;;;;;;5051468;28;20134;-75
2022/05/27 11:31:18;;;;;;;0.28;0.15;;;;;;;;;;5043792;28;20096;-76
2022/05/27 11:33:55;;;;;;;0.30;0.30;;;;;;;;;;5048266;28;20045;-77
2022/05/27 11:36:38;;;;;;;1.45;0.50;;;;;;;;;;5048956;28;20083;-76
2022/05/27 11:39:16;;;;;;;0.20;0.20;;;;;;;;;;5046809;28;20049;-75
2022/05/27 11:41:51;;;;;;;0.20;0.20;;;;;;;;;;5050051;28;20049;-74
2022/05/27 11:44:26;;;;;;;0.20;0.20;;;;;;;;;;5047980;28;20049;-72
2022/05/27 11:47:16;;;;;;;0.52;0.22;;;;;;;;;;5045194;28;20559;-74
2022/05/27 11:49:51;;;;;;;2.33;0.28;;;;;;;;;;5050139;28;20088;-74
2022/05/27 11:52:27;;;;;;;0.43;0.35;;;;;;;;;;5045671;28;20118;-75
2022/05/27 11:55:10;;;;;;;0.20;0.20;;;;;;;;;;5051240;28;20053;-76
2022/05/27 11:57:44;;;;;;;0.35;0.30;;;;;;;;;;5045469;28;20394;-75
2022/05/27 12:00:16;;;;;;;0.40;0.20;;;;;;;;;;5049065;28;20061;-75
2022/05/27 12:02:49;;;;;;;0.22;0.22;;;;;;;;;;5051234;28;20049;-75
2022/05/27 12:05:19;;;;;;;0.75;0.30;;;;;;;;;;5046148;28;20080;-76
2022/05/27 12:07:50;;;;;;;0.60;0.60;;;;;;;;;;5049848;28;20132;-75
2022/05/27 12:10:22;;;;;;;0.90;0.17;;;;;;;;;;5052541;28;20087;-74
2022/05/27 12:12:52;;;;;;;0.10;0.10;;;;;;;;;;5052356;28;20053;-75
2022/05/27 12:15:24;;;;;;;0.10;0.10;;;;;;;;;;5054093;28;20495;-76
2022/05/27 12:17:55;;;;;;;0.25;0.25;;;;;;;;;;5052859;28;20053;-75
2022/05/27 12:20:25;;;;;;;0.60;0.55;;;;;;;;;;5044660;28;20081;-77
2022/05/27 12:22:55;;;;;;;0.30;0.30;;;;;;;;;;5048400;28;20088;-75
2022/05/27 12:25:25;;;;;;;0.70;0.25;;;;;;;;;;5048757;28;20060;-75
2022/05/27 12:27:54;;;;;;;0.17;0.15;;;;;;;;;;5046721;28;20047;-77
2022/05/27 12:30:27;;;;;;;0.90;0.50;;;;;;;;;;5052401;28;20370;-77
2022/05/27 12:32:58;;;;;;;1.85;0.85;;;;;;;;;;5050944;28;20503;-75
2022/05/27 12:35:28;;;;;;;0.50;0.17;;;;;;;;;;5042656;28;20079;-76
2022/05/27 12:38:00;;;;;;;0.30;0.30;;;;;;;;;;5047550;28;20049;-73
2022/05/27 12:40:34;;;;;;;0.75;0.73;;;;;;;;;;5050180;28;20098;-76
2022/05/27 12:43:12;;;;;;;0.40;0.30;;;;;;;;;;5048646;28;20105;-77
2022/05/27 12:45:52;;;;;;;0.20;0.20;;;;;;;;;;5046327;28;20146;-74
2022/05/27 12:48:28;;;;;;;0.20;0.20;;;;;;;;;;5049558;28;20053;-75
2022/05/27 12:50:57;;;;;;;1.40;0.20;;;;;;;;;;5038715;28;20480;-77
2022/05/27 12:53:38;;;;;;;0.40;0.30;;;;;;;;;;5042067;28;20132;-73
2022/05/27 13:02:53;;;;;;;0.43;0.22;;;;;;;;;;5047541;28;20080;-74
2022/05/27 13:05:24;;;;;;;1.63;0.22;;;;;;;;;;4939108;28;20055;-74
2022/05/27 13:07:53;;;;;;;0.20;0.20;;;;;;;;;;4937086;28;20141;-72
2022/05/27 13:10:45;;;;;;;0.20;0.20;;;;;;;;;;4993118;28;20067;-74
2022/05/27 13:13:15;;;;;;;0.43;0.43;;;;;;;;;;5040397;28;20041;-74
2022/05/27 13:15:48;;;;;;;0.35;0.35;;;;;;;;;;5040847;28;20049;-73
2022/05/27 13:18:21;;;;;;;0.25;0.25;;;;;;;;;;5048651;28;20057;-72
2022/05/27 13:20:56;;;;;;;0.55;0.20;;;;;;;;;;5043953;28;20053;-74
2022/05/27 13:23:26;;;;;;;0.22;0.20;;;;;;;;;;5045979;28;20041;-74
2022/05/27 13:26:08;;;;;;;0.30;0.20;;;;;;;;;;5037840;28;20087;-74
2022/05/27 13:28:39;;;;;;;0.30;0.30;;;;;;;;;;5044911;28;20488;-74
2022/05/27 13:31:11;;;;;;;0.80;0.80;;;;;;;;;;5046960;28;20049;-73
2022/05/27 13:33:46;;;;;;;0.50;0.38;;;;;;;;;;5049209;28;20041;-73
2022/05/27 13:36:21;;;;;;;0.22;0.22;;;;;;;;;;5045116;28;20072;-72
2022/05/27 13:38:49;;;;;;;;;;;;;;;;;;5043721;28;20138;-73
2022/05/27 13:41:18;;;;;;;0.35;0.35;;;;;;;;;;5050466;28;19931;-73
2022/05/27 13:43:50;;;;;;;0.20;0.20;;;;;;;;;;5048643;28;20041;-72
2022/05/27 13:46:22;;;;;;;0.20;0.20;;;;;;;;;;5043422;28;20441;-71
2022/05/27 13:48:52;;;;;;;0.32;0.20;;;;;;;;;;5040024;28;20084;-73
2022/05/27 13:51:24;;;;;;;0.45;0.40;;;;;;;;;;5036501;28;20088;-72
2022/05/27 13:53:53;;;;;;;0.40;0.20;;;;;;;;;;5047355;28;20041;-73
2022/05/27 13:56:22;;;;;;;0.17;0.17;;;;;;;;;;5047698;28;20053;-73
2022/05/27 13:58:53;;;;;;;0.25;0.25;;;;;;;;;;5045759;28;20045;-72
2022/05/27 14:01:22;;;;;;;2.60;1.40;;;;;;;;;;5040173;28;20522;-74
2022/05/27 14:03:53;;;;;;;0.20;0.20;;;;;;;;;;5042072;28;20053;-72
2022/05/27 14:06:26;;;;;;;0.43;0.32;;;;;;;;;;5043693;28;20053;-74
2022/05/27 14:08:55;;;;;;;0.10;0.10;;;;;;;;;;5041084;28;20496;-70
2022/05/27 14:11:29;;;;;;;0.30;0.20;;;;;;;;;;5041402;28;20163;-69
2022/05/27 14:13:58;;;;;;;0.10;0.10;;;;;;;;;;5035310;28;20080;-70
2022/05/27 14:16:29;;;;;;;0.10;0.10;;;;;;;;;;5047544;28;20049;-71
2022/05/27 14:18:58;;;;;;;0.10;0.10;;;;;;;;;;5042993;28;20045;-69
2022/05/27 14:24:20;;;;;;;0.38;0.38;;;;;;;;;;5045041;28;20430;-72
2022/05/27 14:26:49;;;;;;;1.65;0.70;;;;;;;;;;5048640;28;20128;-70
2022/05/27 14:29:20;;;;;;;0.17;0.17;;;;;;;;;;5036422;28;20049;-72
2022/05/27 14:31:49;;;;;;;0.68;0.30;;;;;;;;;;5036361;28;20073;-71
2022/05/27 14:34:19;;;;;;;0.30;0.30;;;;;;;;;;5047978;28;20045;-73
2022/05/27 14:36:53;;;;;;;0.35;0.30;;;;;;;;;;5043019;28;20099;-70
2022/05/27 14:39:22;;;;;;;0.10;0.10;;;;;;;;;;5042599;28;20081;-72
2022/05/27 14:41:50;;;;;;;0.20;0.20;;;;;;;;;;5040587;28;20329;-74
2022/05/27 14:44:21;;;;;;;1.13;0.35;;;;;;;;;;5048834;28;20041;-73
2022/05/27 14:47:02;;;;;;;0.55;0.30;;;;;;;;;;5047272;28;20084;-73
2022/05/27 14:49:32;;;;;;;0.20;0.20;;;;;;;;;;5003708;28;20485;-71
2022/05/27 14:52:13;;;;;;;0.63;0.20;;;;;;;;;;5044150;28;20072;-72
2022/05/27 14:54:45;;;;;;;0.98;0.30;;;;;;;;;;5042490;28;20147;-73
2022/05/27 14:57:16;;;;;;;3.83;1.05;;;;;;;;;;5058266;28;20098;-71
2022/05/27 14:59:46;;;;;;;0.55;0.32;;;;;;;;;;5052580;28;20369;-71
2022/05/27 15:02:21;;;;;;;0.52;0.30;;;;;;;;;;5049245;28;20562;-71
2022/05/27 15:04:56;;;;;;;0.28;0.20;;;;;;;;;;5051975;28;20504;-71
2022/05/27 15:07:32;;;;;;;2.10;0.63;;;;;;;;;;5044280;28;20040;-71
2022/05/27 15:10:02;;;;;;;0.70;0.50;;;;;;;;;;5050342;28;20084;-72
2022/05/27 15:12:31;;;;;;;0.20;0.20;;;;;;;;;;5049480;28;20369;-71
2022/05/27 15:14:59;;;;;;;0.52;0.35;;;;;;;;;;5052131;28;20049;-71
2022/05/27 15:17:28;;;;;;;0.73;0.43;;;;;;;;;;5053261;28;20044;-72
2022/05/27 15:20:00;;;;;;;0.20;0.20;;;;;;;;;;5048636;28;20476;-72
2022/05/27 15:22:31;;;;;;;0.40;0.40;;;;;;;;;;5057492;28;20110;-72
2022/05/27 15:25:02;;;;;;;0.75;0.35;;;;;;;;;;5051383;28;20034;-73
2022/05/27 15:33:11;;;;;;;0.10;0.10;;;;;;;;;;5045114;28;20045;-73
2022/05/27 15:35:44;;;;;;;0.20;0.20;;;;;;;;;;5047140;28;20129;-74
2022/05/27 15:38:15;;;;;;;0.30;0.20;;;;;;;;;;5047719;28;20059;-73
2022/05/27 15:40:44;;;;;;;0.20;0.20;;;;;;;;;;5050900;28;20064;-72
2022/05/27 15:43:13;;;;;;;3.72;0.38;;;;;;;;;;5047942;28;20080;-72
2022/05/27 15:45:43;;;;;;;0.20;0.20;;;;;;;;;;5045547;28;20049;-74
2022/05/27 15:48:12;;;;;;;0.45;0.40;;;;;;;;;;5048169;28;20488;-74